createdAt,value
2018-12-10T00:00:31.343Z,52.61
2018-12-10T00:03:07.924Z,53.28
2018-12-10T00:05:40.283Z,53.45
2018-12-10T00:08:09.457Z,52.64
2018-12-10T00:10:41.622Z,52.92
2018-12-10T00:13:11.216Z,52.90
2018-12-10T00:15:40.416Z,52.39
2018-12-10T00:18:09.596Z,52.69
2018-12-10T00:20:39.660Z,52.23
2018-12-10T00:23:09.396Z,51.96
2018-12-10T00:25:38.670Z,52.20
2018-12-10T00:28:08.907Z,52.05
2018-12-10T00:30:38.217Z,51.97
2018-12-10T00:33:08.852Z,52.62
2018-12-10T00:35:38.483Z,51.46
2018-12-10T00:38:07.653Z,51.90
2018-12-10T00:40:36.819Z,51.53
2018-12-10T00:43:06.016Z,51.22
2018-12-10T00:45:35.679Z,50.62
2018-12-10T00:48:06.258Z,50.70
2018-12-10T00:50:35.621Z,50.12
2018-12-10T00:53:04.774Z,50.11
2018-12-10T00:55:35.500Z,49.21
2018-12-10T00:58:06.130Z,49.67
2018-12-10T01:00:35.346Z,49.94
2018-12-10T01:03:04.584Z,50.75
2018-12-10T01:05:33.783Z,50.69
2018-12-10T01:08:03.935Z,50.57
2018-12-10T01:10:33.156Z,50.49
2018-12-10T01:13:02.471Z,50.35
2018-12-10T01:15:31.671Z,50.24
2018-12-10T01:18:00.831Z,49.91
2018-12-10T01:20:32.144Z,50.37
2018-12-10T01:23:01.321Z,50.44
2018-12-10T01:25:30.503Z,50.60
2018-12-10T01:27:59.755Z,50.34
2018-12-10T01:30:28.937Z,50.00
2018-12-10T01:32:59.132Z,50.09
2018-12-10T01:35:28.363Z,50.45
2018-12-10T01:37:57.563Z,50.49
2018-12-10T01:40:26.838Z,51.01
2018-12-10T01:42:56.559Z,50.68
2018-12-10T01:45:27.131Z,50.83
2018-12-10T01:47:56.308Z,50.15
2018-12-10T01:50:25.584Z,50.80
2018-12-10T01:52:54.883Z,50.47
2018-12-10T01:55:24.064Z,50.46
2018-12-10T01:57:54.562Z,50.46
2018-12-10T02:00:23.858Z,50.17
2018-12-10T02:02:53.039Z,50.06
2018-12-10T02:05:23.324Z,50.96
2018-12-10T02:07:52.467Z,50.25
2018-12-10T02:10:23.421Z,49.80
2018-12-10T02:12:52.783Z,50.76
2018-12-10T02:15:22.051Z,50.68
2018-12-10T02:17:51.224Z,50.39
2018-12-10T02:20:20.566Z,50.47
2018-12-10T02:22:50.727Z,50.57
2018-12-10T02:25:19.931Z,51.33
2018-12-10T02:27:49.136Z,51.51
2018-12-10T02:30:18.394Z,51.46
2018-12-10T02:32:47.766Z,51.87
2018-12-10T02:35:19.004Z,51.28
2018-12-10T02:37:48.247Z,50.82
2018-12-10T02:40:17.491Z,50.68
2018-12-10T02:42:48.178Z,50.59
2018-12-10T02:45:17.876Z,51.22
2018-12-10T02:47:47.656Z,50.76
2018-12-10T02:50:17.155Z,50.91
2018-12-10T02:52:48.092Z,50.81
2018-12-10T02:56:46.815Z,50.99
2018-12-10T02:59:16.939Z,51.12
2018-12-10T03:01:46.131Z,51.76
2018-12-10T03:04:15.433Z,51.41
2018-12-10T03:06:44.603Z,51.25
2018-12-10T03:09:13.784Z,51.74
2018-12-10T03:11:44.587Z,51.10
2018-12-10T03:14:13.754Z,51.20
2018-12-10T03:16:43.162Z,51.62
2018-12-10T03:19:13.456Z,51.79
2018-12-10T03:21:42.695Z,52.40
2018-12-10T03:24:12.771Z,51.83
2018-12-10T03:26:42.035Z,52.02
2018-12-10T03:29:11.254Z,51.43
2018-12-10T03:31:40.448Z,51.57
2018-12-10T03:34:09.721Z,52.03
2018-12-10T03:36:40.203Z,52.29
2018-12-10T03:39:09.403Z,51.56
2018-12-10T03:41:38.626Z,51.19
2018-12-10T03:44:07.785Z,51.61
2018-12-10T03:46:37.001Z,51.23
2018-12-10T03:49:07.211Z,51.15
2018-12-10T03:51:36.387Z,50.84
2018-12-10T03:54:06.632Z,51.38
2018-12-10T03:56:36.858Z,50.36
2018-12-10T03:59:06.525Z,50.40
2018-12-10T04:01:36.317Z,50.95
2018-12-10T04:04:05.594Z,50.76
2018-12-10T04:06:34.758Z,50.25
2018-12-10T04:09:05.779Z,50.75
2018-12-10T04:11:37.701Z,50.07
2018-12-10T04:14:06.858Z,51.52
2018-12-10T04:16:36.099Z,50.97
2018-12-10T04:19:05.335Z,50.62
2018-12-10T04:21:34.640Z,50.80
2018-12-10T04:24:04.741Z,50.35
2018-12-10T04:26:33.963Z,50.28
2018-12-10T04:29:03.147Z,50.40
2018-12-10T04:31:32.409Z,49.97
2018-12-10T04:34:02.534Z,50.12
2018-12-10T04:36:33.853Z,49.65
2018-12-10T04:39:03.852Z,49.98
2018-12-10T04:41:33.037Z,49.82
2018-12-10T04:44:02.194Z,50.18
2018-12-10T04:46:32.086Z,50.98
2018-12-10T04:49:01.882Z,50.45
2018-12-10T04:51:31.182Z,50.43
2018-12-10T04:54:00.378Z,50.00
2018-12-10T04:56:31.082Z,50.66
2018-12-10T04:59:01.463Z,49.95
2018-12-10T05:01:30.705Z,49.93
2018-12-10T05:03:59.900Z,50.36
2018-12-10T05:06:29.922Z,49.67
2018-12-10T05:08:59.248Z,49.92
2018-12-10T05:11:29.416Z,50.03
2018-12-10T05:13:58.682Z,50.81
2018-12-10T05:16:27.917Z,50.47
2018-12-10T05:18:57.084Z,50.03
2018-12-10T05:21:26.332Z,51.91
2018-12-10T05:23:56.835Z,51.11
2018-12-10T05:26:26.009Z,51.24
2018-12-10T05:28:56.183Z,50.97
2018-12-10T05:31:25.341Z,51.03
2018-12-10T05:33:54.699Z,50.34
2018-12-10T05:36:25.214Z,51.51
2018-12-10T05:38:54.462Z,51.82
2018-12-10T05:41:23.763Z,50.76
2018-12-10T05:43:53.023Z,50.92
2018-12-10T05:46:22.395Z,50.96
2018-12-10T05:48:55.366Z,51.71
2018-12-10T05:51:24.627Z,51.11
2018-12-10T05:53:53.927Z,50.74
2018-12-10T05:56:23.087Z,52.33
2018-12-10T05:58:52.571Z,51.98
2018-12-10T06:01:22.227Z,51.52
2018-12-10T06:03:51.770Z,51.65
2018-12-10T06:06:20.996Z,51.74
2018-12-10T06:08:50.343Z,51.68
2018-12-10T06:11:21.276Z,51.91
2018-12-10T06:13:50.862Z,51.75
2018-12-10T06:16:20.084Z,51.58
2018-12-10T06:18:49.347Z,52.66
2018-12-10T06:21:18.533Z,52.17
2018-12-10T06:23:48.141Z,52.51
2018-12-10T06:26:18.285Z,52.42
2018-12-10T06:28:47.496Z,52.34
2018-12-10T06:31:16.715Z,52.78
2018-12-10T06:33:45.953Z,52.12
2018-12-10T06:36:16.061Z,52.13
2018-12-10T06:40:15.764Z,51.74
2018-12-10T06:42:45.039Z,52.22
2018-12-10T06:45:15.025Z,53.46
2018-12-10T06:47:44.911Z,53.29
2018-12-10T06:50:14.099Z,53.22
2018-12-10T06:52:43.763Z,52.73
2018-12-10T06:55:13.037Z,52.59
2018-12-10T06:57:42.187Z,53.74
2018-12-10T07:00:13.412Z,52.95
2018-12-10T07:02:42.635Z,53.06
2018-12-10T07:05:13.412Z,52.25
2018-12-10T07:07:42.594Z,51.95
2018-12-10T07:10:12.526Z,52.29
2018-12-10T07:12:41.719Z,51.92
2018-12-10T07:15:11.056Z,52.58
2018-12-10T07:17:41.430Z,52.14
2018-12-10T07:20:10.636Z,51.41
2018-12-10T07:22:41.532Z,51.79
2018-12-10T07:25:10.767Z,51.44
2018-12-10T07:27:39.926Z,51.96
2018-12-10T07:30:10.484Z,51.26
2018-12-10T07:32:40.336Z,51.30
2018-12-10T07:35:09.535Z,52.16
2018-12-10T07:37:38.735Z,51.52
2018-12-10T07:40:08.225Z,51.90
2018-12-10T07:42:37.799Z,50.90
2018-12-10T07:46:37.470Z,52.27
2018-12-10T07:49:06.706Z,52.21
2018-12-10T07:51:35.871Z,52.54
2018-12-10T07:54:05.649Z,53.35
2018-12-10T07:56:35.331Z,52.24
2018-12-10T07:59:04.644Z,52.37
2018-12-10T08:01:35.207Z,52.18
2018-12-10T08:04:04.375Z,52.82
2018-12-10T08:06:34.897Z,52.73
2018-12-10T08:09:07.378Z,52.13
2018-12-10T08:11:36.595Z,52.77
2018-12-10T08:14:05.778Z,52.38
2018-12-10T08:16:35.727Z,52.12
2018-12-10T08:19:06.373Z,52.02
2018-12-10T08:21:35.543Z,52.80
2018-12-10T08:24:05.375Z,51.81
2018-12-10T08:26:34.658Z,51.33
2018-12-10T08:29:07.392Z,51.41
2018-12-10T08:31:37.175Z,51.58
2018-12-10T08:34:06.336Z,51.64
2018-12-10T08:36:35.517Z,51.97
2018-12-10T08:39:07.929Z,51.80
2018-12-10T08:41:37.112Z,51.87
2018-12-10T08:44:06.323Z,52.99
2018-12-10T08:46:35.587Z,52.34
2018-12-10T08:49:05.055Z,51.67
2018-12-10T08:51:34.577Z,51.49
2018-12-10T08:54:03.899Z,52.25
2018-12-10T08:56:34.406Z,52.12
2018-12-10T08:59:04.703Z,51.61
2018-12-10T09:01:35.912Z,51.25
2018-12-10T09:04:05.247Z,50.66
2018-12-10T09:06:34.444Z,51.28
2018-12-10T09:09:05.161Z,50.80
2018-12-10T09:11:35.444Z,50.64
2018-12-10T09:14:06.409Z,50.88
2018-12-10T09:16:35.617Z,50.96
2018-12-10T09:19:05.134Z,51.17
2018-12-10T09:21:34.330Z,50.52
2018-12-10T09:24:05.096Z,50.56
2018-12-10T09:26:34.460Z,51.48
2018-12-10T09:29:03.615Z,51.13
2018-12-10T09:31:32.928Z,50.64
2018-12-10T09:39:51.515Z,51.12
2018-12-10T09:42:24.845Z,51.91
2018-12-10T09:45:05.970Z,51.34
2018-12-10T09:47:40.204Z,51.22
2018-12-10T09:50:13.451Z,51.04
2018-12-10T09:52:49.165Z,50.52
2018-12-10T09:55:27.934Z,50.70
2018-12-10T09:58:01.993Z,50.37
2018-12-10T10:00:36.113Z,50.12
2018-12-10T10:03:07.707Z,49.98
2018-12-10T10:05:55.491Z,50.08
2018-12-10T10:08:26.041Z,50.66
2018-12-10T10:11:00.513Z,50.84
2018-12-10T10:13:31.512Z,50.76
2018-12-10T10:16:07.408Z,51.44
2018-12-10T10:18:40.432Z,51.09
2018-12-10T10:21:15.307Z,51.94
2018-12-10T10:23:46.155Z,51.57
2018-12-10T10:26:19.554Z,50.06
2018-12-10T10:31:42.187Z,49.68
2018-12-10T10:34:11.631Z,48.82
2018-12-10T10:36:41.764Z,46.39
2018-12-10T10:39:11.614Z,44.84
2018-12-10T10:41:40.975Z,41.89
2018-12-10T10:44:10.158Z,40.00
2018-12-10T10:46:39.460Z,38.40
2018-12-10T10:50:39.563Z,37.77
2018-12-10T10:53:08.763Z,41.00
2018-12-10T10:55:37.923Z,42.30
2018-12-10T10:58:07.196Z,44.12
2018-12-10T11:00:43.455Z,44.98
2018-12-10T11:03:44.528Z,45.91
2018-12-10T11:06:16.321Z,46.36
2018-12-10T11:08:45.487Z,46.88
2018-12-10T11:11:15.127Z,48.07
2018-12-10T11:13:44.845Z,48.88
2018-12-10T11:16:14.062Z,48.95
2018-12-10T11:18:43.299Z,50.01
2018-12-10T11:21:12.498Z,50.13
2018-12-10T11:23:43.644Z,49.40
2018-12-10T11:26:13.492Z,49.32
2018-12-10T11:28:42.642Z,49.98
2018-12-10T11:31:17.171Z,50.17
2018-12-10T11:33:43.426Z,49.81
2018-12-10T11:36:12.657Z,49.50
2018-12-10T11:38:42.329Z,48.83
2018-12-10T11:41:12.936Z,49.12
2018-12-10T11:43:42.489Z,49.40
2018-12-10T11:46:13.145Z,49.19
2018-12-10T11:48:42.374Z,50.03
2018-12-10T11:51:12.028Z,49.07
2018-12-10T11:53:41.394Z,50.37
2018-12-10T11:56:10.697Z,50.28
2018-12-10T11:58:40.454Z,50.66
2018-12-10T12:01:11.016Z,50.81
2018-12-10T12:03:40.727Z,50.30
2018-12-10T12:06:11.927Z,50.33
2018-12-10T12:08:42.512Z,49.98
2018-12-10T12:11:11.764Z,50.11
2018-12-10T12:13:41.481Z,51.43
2018-12-10T12:16:10.904Z,52.23
2018-12-10T12:18:40.173Z,52.55
2018-12-10T12:21:10.941Z,51.73
2018-12-10T12:23:40.204Z,51.69
2018-12-10T12:26:09.870Z,50.78
2018-12-10T12:28:39.179Z,50.92
2018-12-10T12:31:08.358Z,51.02
2018-12-10T12:33:39.022Z,50.31
2018-12-10T12:36:08.819Z,50.65
2018-12-10T12:38:38.517Z,51.28
2018-12-10T12:41:07.679Z,51.76
2018-12-10T12:43:38.502Z,50.70
2018-12-10T12:46:07.803Z,51.23
2018-12-10T12:48:37.024Z,50.95
2018-12-10T12:51:06.616Z,51.10
2018-12-10T12:53:35.801Z,51.60
2018-12-10T12:56:05.938Z,52.23
2018-12-10T12:58:36.472Z,53.13
2018-12-10T13:01:05.728Z,52.92
2018-12-10T13:03:35.365Z,52.40
2018-12-10T13:06:06.968Z,52.18
2018-12-10T13:08:36.248Z,52.71
2018-12-10T13:11:05.906Z,51.93
2018-12-10T13:13:35.111Z,52.68
2018-12-10T13:16:05.334Z,51.91
2018-12-10T13:18:35.683Z,52.33
2018-12-10T13:21:06.902Z,51.59
2018-12-10T13:23:36.187Z,52.39
2018-12-10T13:26:05.615Z,51.35
2018-12-10T13:28:35.302Z,51.34
2018-12-10T13:31:04.622Z,51.13
2018-12-10T13:33:34.407Z,51.62
2018-12-10T13:36:04.721Z,50.68
2018-12-10T13:38:36.888Z,50.97
2018-12-10T13:41:05.561Z,50.51
2018-12-10T13:43:35.783Z,50.84
2018-12-10T13:46:05.055Z,50.52
2018-12-10T13:48:34.287Z,50.69
2018-12-10T13:51:05.034Z,50.50
2018-12-10T13:53:34.657Z,51.23
2018-12-10T13:56:04.386Z,50.58
2018-12-10T13:58:34.794Z,51.32
2018-12-10T14:01:04.202Z,51.15
2018-12-10T14:03:33.685Z,50.88
2018-12-10T14:06:04.055Z,51.51
2018-12-10T14:08:33.208Z,50.93
2018-12-10T14:11:02.390Z,51.10
2018-12-10T14:13:32.895Z,50.46
2018-12-10T14:16:02.222Z,49.87
2018-12-10T14:18:32.488Z,50.12
2018-12-10T14:21:02.175Z,51.20
2018-12-10T14:23:31.483Z,50.29
2018-12-10T14:26:00.737Z,50.08
2018-12-10T14:28:30.124Z,50.20
2018-12-10T14:31:01.822Z,49.93
2018-12-10T14:33:31.125Z,49.58
2018-12-10T14:36:00.425Z,49.77
2018-12-10T14:38:29.682Z,50.19
2018-12-10T14:40:58.945Z,49.97
2018-12-10T14:43:29.216Z,50.01
2018-12-10T14:45:58.511Z,50.86
2018-12-10T14:48:28.341Z,50.56
2018-12-10T14:50:57.774Z,50.02
2018-12-10T14:53:26.936Z,49.89
2018-12-10T14:55:58.044Z,49.44
2018-12-10T14:58:27.295Z,49.94
2018-12-10T15:00:56.576Z,50.13
2018-12-10T15:03:25.863Z,50.23
2018-12-10T15:05:55.046Z,50.54
2018-12-10T15:08:25.219Z,50.43
2018-12-10T15:10:54.518Z,50.40
2018-12-10T15:13:23.699Z,50.49
2018-12-10T15:15:54.429Z,50.48
2018-12-10T15:18:23.735Z,50.81
2018-12-10T15:20:54.048Z,51.14
2018-12-10T15:23:23.227Z,50.97
2018-12-10T15:25:53.774Z,50.66
2018-12-10T15:28:23.039Z,51.63
2018-12-10T15:30:52.213Z,52.00
2018-12-10T15:33:23.011Z,50.89
2018-12-10T15:35:52.130Z,51.32
2018-12-10T15:38:21.343Z,50.97
2018-12-10T15:40:50.629Z,51.21
2018-12-10T15:43:19.875Z,51.26
2018-12-10T15:45:49.944Z,51.07
2018-12-10T15:48:20.286Z,51.17
2018-12-10T15:50:49.474Z,51.04
2018-12-10T15:53:18.642Z,51.30
2018-12-10T15:55:47.948Z,52.17
2018-12-10T15:58:18.511Z,51.70
2018-12-10T16:00:47.755Z,51.28
2018-12-10T16:03:16.995Z,50.89
2018-12-10T16:05:46.204Z,50.88
2018-12-10T16:08:15.375Z,51.50
2018-12-10T16:10:45.810Z,50.90
2018-12-10T16:13:15.061Z,51.59
2018-12-10T16:15:44.259Z,51.70
2018-12-10T16:18:15.080Z,51.22
2018-12-10T16:20:44.703Z,51.39
2018-12-10T16:23:14.496Z,51.43
2018-12-10T16:25:43.698Z,51.89
2018-12-10T16:28:12.876Z,51.18
2018-12-10T16:30:42.511Z,51.07
2018-12-10T16:33:12.612Z,50.81
2018-12-10T16:35:41.936Z,51.07
2018-12-10T16:38:11.132Z,51.28
2018-12-10T16:40:40.459Z,51.51
2018-12-10T16:43:09.726Z,51.86
2018-12-10T16:45:40.658Z,51.85
2018-12-10T16:48:09.947Z,51.57
2018-12-10T16:50:39.299Z,51.08
2018-12-10T16:53:09.092Z,51.51
2018-12-10T16:55:38.275Z,51.72
2018-12-10T16:58:08.387Z,50.63
2018-12-10T17:00:37.611Z,50.27
2018-12-10T17:03:06.852Z,50.35
2018-12-10T17:05:36.034Z,50.26
2018-12-10T17:08:05.311Z,50.06
2018-12-10T17:10:36.527Z,50.20
2018-12-10T17:13:05.707Z,50.48
2018-12-10T17:15:34.914Z,50.23
2018-12-10T17:18:04.675Z,49.90
2018-12-10T17:20:34.483Z,50.10
2018-12-10T17:23:04.204Z,49.57
2018-12-10T17:25:33.456Z,50.27
2018-12-10T17:28:02.614Z,50.42
2018-12-10T17:30:31.802Z,50.00
2018-12-10T17:33:02.372Z,49.84
2018-12-10T17:35:31.695Z,50.23
2018-12-10T17:38:01.001Z,50.28
2018-12-10T17:40:30.279Z,50.16
2018-12-10T17:42:59.551Z,50.75
2018-12-10T17:45:29.800Z,50.11
2018-12-10T17:47:59.028Z,51.21
2018-12-10T17:50:28.261Z,51.11
2018-12-10T17:52:57.438Z,51.06
2018-12-10T17:55:27.688Z,51.21
2018-12-10T17:57:58.584Z,51.42
2018-12-10T18:00:28.208Z,51.04
2018-12-10T18:02:57.392Z,50.54
2018-12-10T18:05:26.584Z,50.38
2018-12-10T18:07:55.793Z,50.25
2018-12-10T18:10:25.916Z,50.10
2018-12-10T18:12:55.756Z,50.38
2018-12-10T18:15:25.600Z,50.42
2018-12-10T18:17:54.841Z,49.77
2018-12-10T18:20:23.994Z,50.29
2018-12-10T18:22:55.418Z,50.21
2018-12-10T18:25:24.594Z,49.83
2018-12-10T18:27:54.372Z,50.29
2018-12-10T18:30:23.610Z,49.91
2018-12-10T18:32:52.830Z,50.54
2018-12-10T18:35:22.926Z,50.00
2018-12-10T18:37:52.168Z,50.06
2018-12-10T18:40:22.231Z,50.22
2018-12-10T18:42:51.403Z,50.38
2018-12-10T18:45:20.657Z,50.39
2018-12-10T18:47:51.935Z,50.27
2018-12-10T18:50:21.243Z,50.56
2018-12-10T18:52:50.491Z,49.89
2018-12-10T18:55:19.756Z,50.19
2018-12-10T18:57:49.974Z,50.34
2018-12-10T19:00:19.675Z,50.45
2018-12-10T19:02:48.889Z,50.82
2018-12-10T19:05:22.127Z,50.40
2018-12-10T19:07:52.100Z,50.01
2018-12-10T19:10:21.494Z,50.07
2018-12-10T19:12:50.911Z,50.17
2018-12-10T19:15:20.111Z,49.69
2018-12-10T19:17:49.388Z,50.50
2018-12-10T19:20:20.685Z,50.45
2018-12-10T19:22:50.752Z,50.14
2018-12-10T19:25:20.801Z,50.51
2018-12-10T19:27:50.211Z,50.06
2018-12-10T19:30:20.080Z,49.65
2018-12-10T19:32:49.891Z,49.66
2018-12-10T19:35:19.274Z,50.24
2018-12-10T19:37:48.987Z,50.01
2018-12-10T19:40:18.150Z,49.88
2018-12-10T19:42:48.662Z,50.22
2018-12-10T19:45:17.921Z,49.96
2018-12-10T19:47:47.304Z,50.19
2018-12-10T19:50:16.688Z,49.72
2018-12-10T19:52:45.956Z,50.25
2018-12-10T19:55:16.007Z,50.05
2018-12-10T19:57:45.435Z,50.19
2018-12-10T20:00:14.651Z,49.93
2018-12-10T20:02:43.820Z,50.26
2018-12-10T20:05:13.262Z,49.67
2018-12-10T20:07:45.243Z,49.64
2018-12-10T20:10:14.539Z,50.01
2018-12-10T20:12:44.839Z,49.58
2018-12-10T20:15:14.010Z,49.67
2018-12-10T20:17:43.967Z,49.76
2018-12-10T20:20:13.588Z,50.20
2018-12-10T20:22:42.758Z,49.56
2018-12-10T20:25:12.133Z,50.48
2018-12-10T20:27:43.882Z,50.13
2018-12-10T20:30:13.796Z,50.83
2018-12-10T20:32:43.600Z,49.99
2018-12-10T20:35:12.926Z,50.05
2018-12-10T20:37:42.735Z,49.56
2018-12-10T20:40:12.071Z,49.60
2018-12-10T20:42:41.792Z,50.02
2018-12-10T20:45:12.368Z,49.61
2018-12-10T20:47:42.750Z,50.08
2018-12-10T20:50:11.941Z,49.14
2018-12-10T20:54:12.235Z,49.89
2018-12-10T20:56:41.986Z,50.42
2018-12-10T20:59:11.527Z,50.06
2018-12-10T21:01:40.795Z,50.24
2018-12-10T21:04:09.972Z,50.34
2018-12-10T21:06:40.890Z,50.32
2018-12-10T21:09:10.604Z,49.81
2018-12-10T21:11:40.233Z,49.80
2018-12-10T21:14:09.463Z,49.80
2018-12-10T21:16:40.395Z,49.90
2018-12-10T21:19:09.749Z,49.76
2018-12-10T21:21:39.029Z,49.77
2018-12-10T21:24:08.766Z,49.94
2018-12-10T21:26:38.111Z,49.40
2018-12-10T21:29:07.956Z,49.87
2018-12-10T21:31:38.628Z,48.95
2018-12-10T21:34:07.787Z,48.85
2018-12-10T21:36:37.427Z,48.91
2018-12-10T21:39:08.901Z,48.82
2018-12-10T21:41:39.206Z,48.45
2018-12-10T21:44:08.387Z,49.02
2018-12-10T21:46:37.755Z,49.36
2018-12-10T21:49:07.422Z,49.79
2018-12-10T21:51:38.436Z,49.08
2018-12-10T21:54:07.805Z,49.42
2018-12-10T21:56:38.214Z,49.58
2018-12-10T21:59:08.569Z,49.51
2018-12-10T22:01:38.830Z,49.18
2018-12-10T22:04:08.027Z,49.18
2018-12-10T22:06:37.351Z,49.22
2018-12-10T22:09:06.963Z,49.77
2018-12-10T22:11:38.019Z,49.47
2018-12-10T22:14:08.680Z,49.01
2018-12-10T22:16:37.838Z,49.45
2018-12-10T22:19:07.669Z,49.40
2018-12-10T22:21:36.851Z,48.93
2018-12-10T22:24:07.015Z,49.04
2018-12-10T22:26:36.798Z,49.39
2018-12-10T22:29:05.979Z,49.97
2018-12-10T22:31:35.960Z,49.75
2018-12-10T22:34:05.141Z,50.34
2018-12-10T22:36:35.283Z,49.69
2018-12-10T22:39:06.995Z,49.56
2018-12-10T22:41:37.259Z,49.51
2018-12-10T22:44:06.451Z,50.17
2018-12-10T22:46:36.792Z,49.39
2018-12-10T22:49:06.050Z,49.15
2018-12-10T22:51:35.452Z,49.34
2018-12-10T22:54:04.797Z,48.66
2018-12-10T22:56:34.100Z,48.98
2018-12-10T22:59:05.283Z,48.80
2018-12-10T23:01:34.532Z,49.20
2018-12-10T23:04:03.949Z,49.18
2018-12-10T23:06:33.151Z,49.11
2018-12-10T23:09:02.568Z,49.41
2018-12-10T23:11:33.943Z,49.44
2018-12-10T23:14:03.268Z,49.29
2018-12-10T23:16:32.408Z,49.31
2018-12-10T23:19:02.726Z,49.30
2018-12-10T23:21:33.077Z,49.91
2018-12-10T23:24:03.286Z,49.34
2018-12-10T23:26:32.472Z,49.38
2018-12-10T23:29:01.624Z,49.41
2018-12-10T23:31:30.833Z,49.82
2018-12-10T23:34:01.392Z,50.12
2018-12-10T23:36:31.286Z,50.02
2018-12-10T23:39:00.635Z,49.66
2018-12-10T23:41:30.508Z,49.50
2018-12-10T23:44:00.379Z,49.27
2018-12-10T23:46:31.727Z,50.05
2018-12-10T23:49:00.950Z,49.83
2018-12-10T23:51:30.166Z,49.21
2018-12-10T23:53:59.392Z,49.08
2018-12-10T23:56:28.775Z,49.13
2018-12-10T23:58:58.961Z,48.93
